Latest Weather Observations for Canterbury

IDN60901

Issued at 10:01 pm EST Thursday 22 June 2017 (issued every 10 minutes, with the page automatically refreshed every 10 minutes)

About weather observations | Map of Sydney area stations | Latest observations for Sydney area | Other Formats
Station Details ID: 066194 Name: CANTERBURY RACECOURSE AWS Lat: -33.91 Lon: 151.11 Height: 3.0 m
Data from the previous 72 hours. | See also: Recent months at Canterbury
Date/Time
EST
Temp
°C
App
Temp
°C
Dew
Point
°C
Rel
Hum
%
Delta-T
°C
Wind Press
QNH
hPa
Press
MSL
hPa
Rain since
9am
mm
Dir  Spd
km/h
Gust
km/h
Spd
kts
Gust
kts
22/10:00pm 8.8 8.5 8.7 99 0.0 CALM 0 0 0 0 - - 0.0
22/09:30pm 9.0 8.7 8.7 98 0.1 CALM 0 0 0 0 - - 0.0
22/09:10pm 9.5 9.3 9.2 98 0.1 CALM 0 0 0 0 - - 0.0
22/09:00pm 9.7 9.5 9.2 97 0.2 CALM 0 0 0 0 - - 0.0
22/08:30pm 9.9 9.8 9.3 96 0.3 CALM 0 0 0 0 - - 0.0
22/08:00pm 10.5 10.5 9.9 96 0.3 CALM 0 0 0 0 - - 0.0
22/07:30pm 10.6 10.6 9.8 95 0.4 CALM 0 0 0 0 - - 0.0
22/07:00pm 10.6 10.6 9.7 94 0.5 CALM 0 0 0 0 - - 0.0
22/06:30pm 10.7 10.6 9.5 92 0.6 CALM 0 0 0 0 - - 0.0
22/06:00pm 11.2 11.1 9.5 89 0.9 CALM 0 0 0 0 - - 0.0
22/05:30pm 12.4 12.5 10.3 87 1.1 CALM 0 0 0 0 - - 0.0
22/05:00pm 13.6 11.4 9.5 76 2.1 E 11 13 6 7 - - 0.0
22/04:30pm 15.6 14.8 9.5 67 3.2 SE 4 9 2 5 - - 0.0
22/04:00pm 16.8 15.6 9.7 63 3.7 SE 6 11 3 6 - - 0.0
22/03:30pm 16.9 15.1 9.3 61 3.9 SE 9 13 5 7 - - 0.0
22/03:00pm 17.2 15.6 10.1 63 3.8 ESE 9 13 5 7 - - 0.0
22/02:30pm 16.2 14.4 9.4 64 3.5 ESE 9 15 5 8 - - 0.0
22/02:00pm 17.2 15.0 9.4 60 4.1 SE 11 17 6 9 - - 0.0
22/01:30pm 17.3 15.3 10.2 63 3.8 SE 11 17 6 9 - - 0.0
22/01:00pm 17.1 14.6 9.8 62 3.8 ESE 13 19 7 10 - - 0.0
22/12:30pm 17.9 16.6 9.8 59 4.3 SSW 7 15 4 8 - - 0.0
22/12:00pm 17.7 16.6 10.8 64 3.7 S 7 17 4 9 - - 0.0
22/11:30am 16.6 15.3 10.0 65 3.5 SW 7 15 4 8 - - 0.0
22/11:00am 15.9 14.1 9.3 65 3.4 WNW 9 15 5 8 - - 0.0
22/10:30am 14.8 12.5 9.0 68 3.0 W 11 15 6 8 - - 0.0
22/10:00am 13.9 12.0 8.9 72 2.5 W 9 15 5 8 - - 0.0
22/09:30am 12.7 10.2 8.4 75 2.1 W 11 15 6 8 - - 0.0
22/09:00am 11.6 9.5 8.1 79 1.7 W 9 15 5 8 - - 0.2
22/08:30am 10.4 8.1 7.5 82 1.4 W 9 17 5 9 - - 0.2
22/08:00am 9.5 7.6 7.4 87 1.0 WNW 7 11 4 6 - - 0.2
22/07:30am 8.4 6.6 7.0 91 0.7 WNW 6 7 3 4 - - 0.2
22/07:00am 8.3 6.9 7.2 93 0.5 WNW 4 7 2 4 - - 0.2
22/06:30am 7.8 5.9 6.7 93 0.5 W 6 9 3 5 - - 0.2
22/06:00am 8.2 6.4 7.1 93 0.5 WNW 6 9 3 5 - - 0.2
22/05:30am 8.3 6.5 7.2 93 0.5 WNW 6 9 3 5 - - 0.2
22/05:00am 8.6 7.6 7.5 93 0.5 NNW 2 7 1 4 - - 0.2
22/04:30am 8.9 8.3 7.5 91 0.7 CALM 0 0 0 0 - - 0.2
22/04:00am 9.3 7.6 7.7 90 0.8 NW 6 9 3 5 - - 0.2
22/03:30am 9.9 8.3 8.2 89 0.8 WNW 6 9 3 5 - - 0.2
22/03:00am 10.3 9.2 8.6 89 0.8 WNW 4 7 2 4 - - 0.2
22/02:30am 10.1 9.4 8.4 89 0.8 WNW 2 9 1 5 - - 0.2
22/02:00am 9.9 9.5 8.3 90 0.8 CALM 0 0 0 0 - - 0.2
22/01:30am 9.7 8.6 8.3 91 0.7 NW 4 7 2 4 - - 0.2
22/01:00am 9.3 7.7 8.1 92 0.6 WNW 6 7 3 4 - - 0.2
22/12:30am 9.3 7.6 7.7 90 0.8 NW 6 9 3 5 - - 0.2
22/12:00am 9.8 8.2 8.1 89 0.8 NW 6 9 3 5 - - 0.2
 
Date/Time
EST
Temp
°C
App
Temp
°C
Dew
Point
°C
Rel
Hum
%
Delta-T
°C
Wind Press
QNH
hPa
Press
MSL
hPa
Rain since
9am
mm
Dir  Spd
km/h
Gust
km/h
Spd
kts
Gust
kts
21/11:30pm 10.0 8.5 8.4 90 0.8 W 6 7 3 4 - - 0.2
21/11:00pm 10.4 9.4 8.8 90 0.8 W 4 7 2 4 - - 0.2
21/10:30pm 9.8 8.1 7.6 86 1.0 NW 6 7 3 4 - - 0.2
21/10:00pm 10.5 9.1 8.9 90 0.8 W 6 9 3 5 - - 0.2
21/09:30pm 9.7 8.0 7.5 86 1.0 W 6 7 3 4 - - 0.2
21/09:00pm 12.0 11.0 8.8 81 1.6 W 4 7 2 4 - - 0.2
21/08:30pm 12.6 12.1 9.2 80 1.7 W 2 7 1 4 - - 0.2
21/08:00pm 11.6 10.7 9.3 86 1.2 SSW 4 9 2 5 - - 0.2
21/07:30pm 11.3 10.1 8.0 80 1.6 S 4 9 2 5 - - 0.2
21/07:00pm 13.7 12.1 7.9 68 2.9 SSW 6 9 3 5 - - 0.2
21/06:30pm 14.6 12.3 7.6 63 3.5 SSW 9 13 5 7 - - 0.2
21/06:00pm 14.8 12.7 8.1 64 3.4 S 9 13 5 7 - - 0.2
21/05:30pm 15.0 13.3 8.3 64 3.4 S 7 13 4 7 - - 0.2
21/05:00pm 15.8 14.1 8.3 61 3.8 S 7 13 4 7 - - 0.2
21/04:30pm 16.5 13.7 8.7 60 4.0 SSE 13 20 7 11 - - 0.2
21/04:00pm 17.1 13.5 8.3 56 4.5 SSE 17 26 9 14 - - 0.2
21/03:30pm 17.5 13.9 8.4 55 4.7 S 17 30 9 16 - - 0.2
21/03:00pm 17.9 14.2 9.5 58 4.4 S 19 30 10 16 - - 0.2
21/02:30pm 17.9 14.0 9.3 57 4.5 SSE 20 32 11 17 - - 0.2
21/02:00pm 18.3 15.2 10.2 59 4.3 SSE 17 33 9 18 - - 0.2
21/01:30pm 17.3 13.9 10.7 65 3.5 S 19 30 10 16 - - 0.2
21/01:00pm 17.6 15.0 12.1 70 3.0 S 17 28 9 15 - - 0.2
21/12:30pm 17.3 15.5 10.7 65 3.5 SW 11 19 6 10 - - 0.0
21/12:00pm 16.5 14.0 8.2 58 4.2 W 11 19 6 10 - - 0.0
21/11:30am 15.6 13.0 7.6 59 4.0 W 11 19 6 10 - - 0.0
21/11:00am 15.0 11.6 7.5 61 3.7 W 15 20 8 11 - - 0.0
21/10:30am 13.8 11.4 6.9 63 3.3 WNW 9 17 5 9 - - 0.0
21/10:00am 12.9 9.5 6.0 63 3.3 W 13 19 7 10 - - 0.0
21/09:30am 12.4 9.6 5.3 62 3.3 W 9 15 5 8 - - 0.0
21/09:00am 11.1 8.5 6.3 72 2.2 WNW 9 13 5 7 - - 0.0
21/08:30am 9.5 8.0 8.6 94 0.4 WNW 6 11 3 6 - - 0.0
21/08:00am 7.5 6.9 7.4 99 0.0 CALM 0 0 0 0 - - 0.0
21/07:30am 5.7 3.9 5.6 99 0.0 N 4 7 2 4 - - 0.0
21/07:00am 6.3 4.7 6.2 99 0.0 NNW 4 6 2 3 - - 0.0
21/06:30am 6.2 5.3 6.1 99 0.0 CALM 0 0 0 0 - - 0.0
21/06:00am 6.7 5.9 6.6 99 0.0 CALM 0 0 0 0 - - 0.0
21/05:34am 7.0 5.0 6.9 99 0.0 WNW 7 13 4 7 - - 0.0
21/05:30am 7.2 5.2 7.1 99 0.0 WNW 7 13 4 7 - - 0.0
21/05:00am 7.4 5.4 7.3 99 0.0 NW 7 11 4 6 - - 0.0
21/04:30am 7.4 5.4 7.3 99 0.0 NW 7 11 4 6 - - 0.0
21/04:00am 8.1 6.3 8.0 99 0.0 NW 7 11 4 6 - - 0.0
21/03:30am 8.3 6.7 8.2 99 0.0 NW 6 9 3 5 - - 0.0
21/03:00am 6.9 5.8 6.8 99 0.0 NNW 2 7 1 4 - - 0.0
21/02:30am 6.9 6.2 6.8 99 0.0 CALM 0 0 0 0 - - 0.0
21/02:00am 7.3 6.7 7.2 99 0.0 CALM 0 0 0 0 - - 0.0
21/01:30am 7.8 7.3 7.7 99 0.0 CALM 0 0 0 0 - - 0.0
21/01:00am 7.3 6.7 7.2 99 0.0 CALM 0 0 0 0 - - 0.0
21/12:30am 7.4 6.8 7.3 99 0.0 CALM 0 0 0 0 - - 0.0
21/12:00am 7.5 6.9 7.4 99 0.0 CALM 0 0 0 0 - - 0.0
 
Date/Time
EST
Temp
°C
App
Temp
°C
Dew
Point
°C
Rel
Hum
%
Delta-T
°C
Wind Press
QNH
hPa
Press
MSL
hPa
Rain since
9am
mm
Dir  Spd
km/h
Gust
km/h
Spd
kts
Gust
kts
20/11:30pm 8.0 7.5 7.9 99 0.0 CALM 0 0 0 0 - - 0.0
20/11:00pm 8.4 8.0 8.3 99 0.0 CALM 0 0 0 0 - - 0.0
20/10:30pm 8.6 8.3 8.5 99 0.0 CALM 0 0 0 0 - - 0.0
20/10:00pm 8.5 8.1 8.4 99 0.0 CALM 0 0 0 0 - - 0.0
20/09:30pm 8.9 8.6 8.8 99 0.0 CALM 0 0 0 0 - - 0.0
20/09:00pm 9.5 9.4 9.4 99 0.0 CALM 0 0 0 0 - - 0.0
20/08:30pm 10.0 10.0 9.9 99 0.1 CALM 0 0 0 0 - - 0.0
20/08:00pm 10.4 10.5 10.1 98 0.2 CALM 0 0 0 0 - - 0.0
20/07:30pm 10.1 10.0 9.6 97 0.2 CALM 0 0 0 0 - - 0.0
20/07:21pm 10.5 10.6 10.0 97 0.3 CALM 0 0 0 0 - - 0.0
20/07:00pm 11.0 11.2 10.5 97 0.3 CALM 0 0 0 0 - - 0.0
20/06:39pm 10.6 10.6 9.7 94 0.5 CALM 0 0 0 0 - - 0.0
20/06:30pm 11.3 11.5 10.5 95 0.4 CALM 0 0 0 0 - - 0.0
20/06:00pm 11.9 12.1 10.5 91 0.7 CALM 0 0 0 0 - - 0.0
20/05:30pm 12.8 13.2 11.2 90 0.8 CALM 0 0 0 0 - - 0.0
20/05:00pm 14.0 14.4 11.2 83 1.5 CALM 0 0 0 0 - - 0.0
20/04:30pm 15.5 14.6 10.7 73 2.5 ESE 6 7 3 4 - - 0.0
20/04:00pm 16.7 15.8 11.2 70 3.0 E 7 11 4 6 - - 0.0
20/03:30pm 17.2 16.5 11.9 71 2.9 E 7 9 4 5 - - 0.0
20/03:00pm 16.6 15.3 11.3 71 2.9 E 9 11 5 6 - - 0.0
20/02:30pm 17.7 16.0 11.3 66 3.5 SE 11 17 6 9 - - 0.0
20/02:00pm 17.9 17.0 11.5 66 3.5 SSE 7 9 4 5 - - 0.0
20/01:30pm 18.6 17.8 11.7 64 3.8 SE 7 17 4 9 - - 0.0
20/01:00pm 18.0 17.8 11.8 67 3.4 SSE 4 11 2 6 - - 0.0
20/12:30pm 18.5 17.7 11.8 65 3.7 SSE 7 11 4 6 - - 0.0
20/12:00pm 18.0 17.2 11.8 67 3.4 W 7 13 4 7 - - 0.0
20/11:30am 17.0 15.6 10.8 67 3.3 WNW 9 13 5 7 - - 0.0
20/11:00am 15.5 14.0 10.5 72 2.6 WNW 9 13 5 7 - - 0.0
20/10:30am 14.8 13.3 10.6 76 2.2 WNW 9 15 5 8 - - 0.0
20/10:00am 13.9 12.6 10.1 78 2.0 WNW 7 11 4 6 - - 0.0
20/09:30am 13.3 12.2 10.1 81 1.7 NW 6 9 3 5 - - 0.0
20/09:00am 12.3 10.9 9.5 83 1.4 W 7 11 4 6 - - 1.2
20/08:30am 12.3 10.9 9.5 83 1.4 W 7 13 4 7 - - 1.2
20/08:00am 11.4 10.1 9.8 90 0.8 WNW 7 13 4 7 - - 1.2
20/07:30am 11.1 9.9 9.7 91 0.7 WSW 6 9 3 5 - - 1.2
20/07:17am 11.0 9.7 9.9 93 0.6 WSW 7 13 4 7 - - 1.2
20/07:01am 11.1 10.0 10.0 93 0.6 NW 6 9 3 5 - - 1.0
20/07:00am 11.1 10.0 10.0 93 0.6 NW 6 9 3 5 - - 1.0
20/06:42am 11.1 9.1 10.2 94 0.5 W 11 17 6 9 - - 1.0
20/06:30am 11.2 9.2 10.3 94 0.5 WSW 11 20 6 11 - - 1.0
20/06:02am 11.6 10.7 10.7 94 0.5 NNW 6 11 3 6 - - 0.2
20/06:00am 11.6 10.7 10.7 94 0.5 N 6 9 3 5 - - 0.2
20/05:30am 11.4 10.5 10.6 95 0.4 NW 6 7 3 4 - - 0.0
20/05:00am 11.3 11.6 11.0 98 0.2 CALM 0 0 0 0 - - 0.0
20/04:30am 10.9 11.1 10.6 98 0.2 CALM 0 2 0 1 - - 0.0
20/04:00am 10.6 9.6 10.4 99 0.1 NW 6 9 3 5 - - 0.0
20/03:43am 10.2 10.2 9.9 98 0.2 CALM 0 0 0 0 - - 0.0
20/03:30am 10.1 10.0 9.6 97 0.2 CALM 0 0 0 0 - - 0.0
20/03:22am 9.8 9.7 9.3 97 0.2 CALM 0 0 0 0 - - 0.0
20/03:07am 10.5 10.6 10.0 97 0.3 CALM 0 0 0 0 - - 0.0
20/03:00am 10.5 10.6 10.0 97 0.3 CALM 0 0 0 0 - - 0.0
20/02:56am 10.5 10.2 10.0 97 0.3 WNW 2 7 1 4 - - 0.0
20/02:30am 10.8 10.9 10.2 96 0.3 CALM 0 0 0 0 - - 0.0
20/02:00am 11.5 10.6 10.6 94 0.5 NNW 6 9 3 5 - - 0.0
20/01:30am 11.8 11.0 11.0 95 0.4 NW 6 9 3 5 - - 0.0
20/01:00am 11.7 10.8 10.8 94 0.5 W 6 9 3 5 - - 0.0
20/12:30am 12.2 11.3 11.4 95 0.4 NW 7 11 4 6 - - 0.0
20/12:00am 12.8 12.9 11.4 91 0.7 SSW 2 7 1 4 - - 0.0
 
Date/Time
EST
Temp
°C
App
Temp
°C
Dew
Point
°C
Rel
Hum
%
Delta-T
°C
Wind Press
QNH
hPa
Press
MSL
hPa
Rain since
9am
mm
Dir  Spd
km/h
Gust
km/h
Spd
kts
Gust
kts
19/11:30pm 13.8 13.3 12.7 93 0.6 SW 7 11 4 6 - - 0.0
19/11:21pm 13.8 13.4 12.9 94 0.5 SW 7 13 4 7 - - 0.0
19/11:00pm 13.1 12.6 12.2 94 0.5 SW 6 11 3 6 - - 0.0
19/10:48pm 12.3 12.6 11.0 92 0.7 CALM 0 0 0 0 - - 0.0
19/10:30pm 12.3 11.9 11.0 92 0.7 W 4 7 2 4 - - 0.0

Latest Capital City Observations: Canberra | Sydney | Melbourne | Brisbane | Adelaide | Perth | Hobart | Darwin

Other Formats:

Comma delimited format used in spreadsheet applications
http://www.bom.gov.au/fwo/IDN60901/IDN60901.94766.axf

JavaScript Object Notation format (JSON) in row-major order
http://www.bom.gov.au/fwo/IDN60901/IDN60901.94766.json